createdAt,value
2023-05-17T00:00:32.542Z,0
2023-05-17T00:01:32.509Z,0
2023-05-17T00:02:32.562Z,0
2023-05-17T00:03:32.522Z,0
2023-05-17T00:04:32.504Z,0
2023-05-17T00:05:32.531Z,0
2023-05-17T00:06:32.606Z,0
2023-05-17T00:07:33.487Z,0
2023-05-17T00:08:46.863Z,0
2023-05-17T00:09:50.863Z,0
2023-05-17T00:10:54.856Z,0
2023-05-17T00:11:58.838Z,0
2023-05-17T00:13:03.015Z,0
2023-05-17T00:14:06.896Z,0
2023-05-17T00:15:10.861Z,0
2023-05-17T00:16:14.863Z,0
2023-05-17T00:17:18.873Z,0
2023-05-17T00:18:22.898Z,0
2023-05-17T00:19:26.924Z,0
2023-05-17T00:20:30.879Z,0
2023-05-17T00:21:32.504Z,0
2023-05-17T00:22:32.501Z,0
2023-05-17T00:23:32.488Z,0
2023-05-17T00:24:32.475Z,0
2023-05-17T00:25:32.473Z,0
2023-05-17T00:26:32.495Z,0
2023-05-17T00:27:32.501Z,0
2023-05-17T00:28:32.493Z,0
2023-05-17T00:29:32.566Z,0
2023-05-17T00:30:32.502Z,0
2023-05-17T00:31:32.530Z,0
2023-05-17T00:32:32.549Z,0
2023-05-17T00:33:32.566Z,0
2023-05-17T00:34:32.527Z,0
2023-05-17T00:35:32.506Z,0
2023-05-17T00:36:32.563Z,0
2023-05-17T00:37:32.486Z,0
2023-05-17T00:38:32.496Z,0
2023-05-17T00:39:32.548Z,0
2023-05-17T00:40:32.549Z,0
2023-05-17T00:41:32.506Z,0
2023-05-17T00:42:32.487Z,0
2023-05-17T00:43:32.500Z,0
2023-05-17T00:44:32.482Z,0
2023-05-17T00:45:32.527Z,0
2023-05-17T00:46:32.474Z,0
2023-05-17T00:47:33.608Z,0
2023-05-17T00:48:32.587Z,0
2023-05-17T00:49:32.549Z,0
2023-05-17T00:50:32.502Z,0
2023-05-17T00:51:32.525Z,0
2023-05-17T00:52:32.492Z,0
2023-05-17T00:53:32.486Z,0
2023-05-17T00:54:32.495Z,0
2023-05-17T00:55:32.541Z,0
2023-05-17T00:56:32.514Z,0
2023-05-17T00:57:32.503Z,0
2023-05-17T00:58:32.489Z,0
2023-05-17T00:59:32.509Z,0
2023-05-17T01:00:32.515Z,0
2023-05-17T01:01:32.532Z,0
2023-05-17T01:02:32.559Z,0
2023-05-17T01:03:32.508Z,0
2023-05-17T01:04:32.550Z,0
2023-05-17T01:05:32.531Z,0
2023-05-17T01:06:32.562Z,0
2023-05-17T01:07:32.546Z,0
2023-05-17T01:08:32.565Z,0
2023-05-17T01:09:32.556Z,0
2023-05-17T01:10:32.567Z,0
2023-05-17T01:11:32.526Z,0
2023-05-17T01:12:32.513Z,0
2023-05-17T01:13:32.524Z,0
2023-05-17T01:14:32.522Z,0
2023-05-17T01:15:32.536Z,0
2023-05-17T01:16:32.570Z,0
2023-05-17T01:17:32.637Z,0
2023-05-17T01:18:32.609Z,0
2023-05-17T01:19:32.601Z,0
2023-05-17T01:20:32.572Z,0
2023-05-17T01:21:32.487Z,0
2023-05-17T01:22:32.497Z,0
2023-05-17T01:23:32.495Z,0
2023-05-17T01:24:32.484Z,0
2023-05-17T01:25:32.495Z,0
2023-05-17T01:26:32.474Z,0
2023-05-17T01:27:32.512Z,0
2023-05-17T01:28:32.521Z,0
2023-05-17T01:29:32.516Z,0
2023-05-17T01:30:32.490Z,0
2023-05-17T01:31:32.492Z,0
2023-05-17T01:32:32.670Z,0
2023-05-17T01:33:32.602Z,0
2023-05-17T01:34:32.589Z,0
2023-05-17T01:35:32.553Z,0
2023-05-17T01:36:32.494Z,0
2023-05-17T01:37:32.494Z,0
2023-05-17T01:38:32.572Z,0
2023-05-17T01:39:32.482Z,0
2023-05-17T01:40:32.670Z,0
2023-05-17T01:41:32.663Z,0
2023-05-17T01:42:32.689Z,0
2023-05-17T01:43:32.638Z,0
2023-05-17T01:44:33.256Z,0
2023-05-17T01:45:32.666Z,0
2023-05-17T01:46:32.619Z,0
2023-05-17T01:47:32.675Z,0
2023-05-17T01:48:32.710Z,0
2023-05-17T01:49:32.654Z,0
2023-05-17T01:50:32.621Z,0
2023-05-17T01:51:32.641Z,0
2023-05-17T01:52:32.624Z,0
2023-05-17T01:53:32.629Z,0
2023-05-17T01:54:32.642Z,0
2023-05-17T01:55:32.655Z,0
2023-05-17T01:56:32.684Z,0
2023-05-17T01:57:32.711Z,0
2023-05-17T01:58:32.468Z,0
2023-05-17T01:59:32.475Z,0
2023-05-17T02:00:32.484Z,0
2023-05-17T02:01:32.484Z,0
2023-05-17T02:02:32.504Z,0
2023-05-17T02:03:32.573Z,0
2023-05-17T02:04:32.660Z,0
2023-05-17T02:05:32.475Z,0
2023-05-17T02:06:32.494Z,0
2023-05-17T02:07:32.540Z,0
2023-05-17T02:08:32.473Z,0
2023-05-17T02:09:32.534Z,0
2023-05-17T02:10:32.495Z,0
2023-05-17T02:11:32.512Z,0
2023-05-17T02:12:32.503Z,0
2023-05-17T02:13:32.479Z,0
2023-05-17T02:14:32.493Z,0
2023-05-17T02:15:32.557Z,0
2023-05-17T02:16:32.533Z,0
2023-05-17T02:17:32.551Z,0
2023-05-17T02:18:32.664Z,0
2023-05-17T02:19:32.565Z,0
2023-05-17T02:20:32.548Z,0
2023-05-17T02:21:32.453Z,0
2023-05-17T02:22:32.523Z,0
2023-05-17T02:23:32.476Z,0
2023-05-17T02:24:32.517Z,0.36
2023-05-17T02:25:32.456Z,0
2023-05-17T02:26:32.477Z,0
2023-05-17T02:27:32.518Z,0.85
2023-05-17T02:28:32.552Z,0.85
2023-05-17T02:29:32.490Z,0.85
2023-05-17T02:30:32.518Z,1.71
2023-05-17T02:31:32.496Z,0.85
2023-05-17T02:32:32.628Z,1.22
2023-05-17T02:33:32.535Z,1.22
2023-05-17T02:34:32.495Z,1.71
2023-05-17T02:35:32.474Z,2.08
2023-05-17T02:36:32.499Z,2.57
2023-05-17T02:37:32.472Z,2.57
2023-05-17T02:38:32.510Z,2.08
2023-05-17T02:39:32.506Z,2.57
2023-05-17T02:40:32.501Z,2.94
2023-05-17T02:41:32.526Z,2.57
2023-05-17T02:42:32.496Z,2.57
2023-05-17T02:43:32.524Z,2.94
2023-05-17T02:44:32.506Z,3.43
2023-05-17T02:45:32.460Z,2.94
2023-05-17T02:46:32.500Z,3.79
2023-05-17T02:47:32.544Z,2.94
2023-05-17T02:48:32.495Z,2.94
2023-05-17T02:49:32.521Z,2.08
2023-05-17T02:50:32.494Z,2.94
2023-05-17T02:51:32.480Z,2.94
2023-05-17T02:52:32.480Z,2.94
2023-05-17T02:53:32.456Z,4.77
2023-05-17T02:54:32.495Z,4.77
2023-05-17T02:55:32.500Z,5.63
2023-05-17T02:56:32.649Z,5.63
2023-05-17T02:57:32.513Z,6.85
2023-05-17T02:58:32.476Z,7.7
2023-05-17T02:59:32.546Z,8.56
2023-05-17T03:00:32.484Z,9.05
2023-05-17T03:01:32.540Z,8.56
2023-05-17T03:02:32.510Z,9.54
2023-05-17T03:03:32.640Z,9.54
2023-05-17T03:04:32.543Z,9.91
2023-05-17T03:05:32.469Z,8.19
2023-05-17T03:06:32.463Z,7.34
2023-05-17T03:07:32.476Z,6.48
2023-05-17T03:08:32.579Z,5.99
2023-05-17T03:09:32.480Z,5.99
2023-05-17T03:10:32.700Z,6.85
2023-05-17T03:11:32.590Z,5.63
2023-05-17T03:12:32.622Z,6.85
2023-05-17T03:13:32.636Z,5.99
2023-05-17T03:14:32.471Z,6.85
2023-05-17T03:15:32.463Z,6.85
2023-05-17T03:16:32.621Z,6.85
2023-05-17T03:17:32.782Z,6.48
2023-05-17T03:18:32.633Z,5.63
2023-05-17T03:19:32.592Z,5.14
2023-05-17T03:20:32.528Z,3.43
2023-05-17T03:21:32.594Z,2.94
2023-05-17T03:22:32.507Z,2.57
2023-05-17T03:23:32.479Z,2.08
2023-05-17T03:24:32.662Z,2.08
2023-05-17T03:25:32.573Z,2.57
2023-05-17T03:26:32.511Z,3.43
2023-05-17T03:27:32.549Z,3.43
2023-05-17T03:28:32.476Z,5.14
2023-05-17T03:29:32.578Z,4.77
2023-05-17T03:30:32.638Z,5.63
2023-05-17T03:31:32.600Z,5.99
2023-05-17T03:32:32.540Z,7.7
2023-05-17T03:33:32.622Z,7.34
2023-05-17T03:34:32.591Z,8.19
2023-05-17T03:35:32.614Z,8.19
2023-05-17T03:36:32.609Z,7.7
2023-05-17T03:37:32.618Z,7.7
2023-05-17T03:38:32.472Z,7.7
2023-05-17T03:39:32.573Z,6.48
2023-05-17T03:40:32.486Z,7.34
2023-05-17T03:41:32.693Z,8.56
2023-05-17T03:42:32.575Z,12.11
2023-05-17T03:43:32.586Z,14.31
2023-05-17T03:44:32.509Z,13.82
2023-05-17T03:45:32.500Z,13.33
2023-05-17T03:46:32.629Z,15.17
2023-05-17T03:47:32.518Z,19.08
2023-05-17T03:48:35.214Z,24.22
2023-05-17T03:49:32.623Z,26.79
2023-05-17T03:50:32.452Z,28.63
2023-05-17T03:51:32.484Z,31.19
2023-05-17T03:52:32.497Z,30.34
2023-05-17T03:53:32.494Z,31.19
2023-05-17T03:54:32.477Z,32.9
2023-05-17T03:55:32.503Z,32.05
2023-05-17T03:56:32.480Z,30.34
2023-05-17T03:57:32.501Z,31.56
2023-05-17T03:58:32.447Z,32.42
2023-05-17T03:59:32.495Z,30.34
2023-05-17T04:00:32.514Z,28.63
2023-05-17T04:01:32.534Z,25.07
2023-05-17T04:02:32.662Z,20.8
2023-05-17T04:03:32.499Z,16.39
2023-05-17T04:04:32.625Z,18.11
2023-05-17T04:05:32.477Z,18.11
2023-05-17T04:06:32.476Z,16.39
2023-05-17T04:07:32.580Z,16.39
2023-05-17T04:08:32.454Z,15.17
2023-05-17T04:09:32.492Z,15.17
2023-05-17T04:10:32.513Z,13.33
2023-05-17T04:11:32.494Z,11.62
2023-05-17T04:12:32.458Z,11.25
2023-05-17T04:13:32.520Z,9.91
2023-05-17T04:14:32.489Z,10.39
2023-05-17T04:15:32.498Z,8.19
2023-05-17T04:16:32.468Z,5.63
2023-05-17T04:17:32.450Z,4.77
2023-05-17T04:18:32.526Z,3.79
2023-05-17T04:19:32.637Z,2.94
2023-05-17T04:20:32.509Z,3.43
2023-05-17T04:21:32.478Z,4.77
2023-05-17T04:22:32.475Z,5.63
2023-05-17T04:23:32.491Z,6.48
2023-05-17T04:24:32.474Z,5.63
2023-05-17T04:25:32.494Z,5.14
2023-05-17T04:26:32.497Z,4.28
2023-05-17T04:27:32.513Z,6.48
2023-05-17T04:28:32.472Z,8.19
2023-05-17T04:29:32.476Z,9.54
2023-05-17T04:30:32.669Z,10.77
2023-05-17T04:31:32.581Z,11.25
2023-05-17T04:32:32.590Z,11.25
2023-05-17T04:33:32.505Z,11.62
2023-05-17T04:34:32.539Z,13.33
2023-05-17T04:35:32.524Z,16.39
2023-05-17T04:36:32.477Z,17.25
2023-05-17T04:37:32.445Z,19.45
2023-05-17T04:38:32.476Z,16.88
2023-05-17T04:39:32.505Z,14.31
2023-05-17T04:40:32.449Z,12.11
2023-05-17T04:41:32.450Z,12.48
2023-05-17T04:42:32.511Z,11.62
2023-05-17T04:43:32.525Z,11.62
2023-05-17T04:44:32.510Z,10.77
2023-05-17T04:45:32.457Z,11.25
2023-05-17T04:46:32.484Z,10.77
2023-05-17T04:47:32.571Z,10.77
2023-05-17T04:48:32.640Z,9.91
2023-05-17T04:49:32.463Z,10.77
2023-05-17T04:50:32.528Z,12.48
2023-05-17T04:51:32.479Z,11.62
2023-05-17T04:52:32.478Z,9.54
2023-05-17T04:53:32.463Z,9.05
2023-05-17T04:54:32.532Z,7.7
2023-05-17T04:55:32.481Z,7.7
2023-05-17T04:56:32.488Z,6.85
2023-05-17T04:57:32.496Z,6.85
2023-05-17T04:58:32.467Z,5.63
2023-05-17T04:59:32.487Z,5.14
2023-05-17T05:00:32.465Z,3.79
2023-05-17T05:01:32.487Z,2.57
2023-05-17T05:02:32.541Z,1.71
2023-05-17T05:03:32.451Z,1.22
2023-05-17T05:04:32.562Z,0.36
2023-05-17T05:05:32.449Z,0.85
2023-05-17T05:06:32.471Z,1.22
2023-05-17T05:07:32.464Z,1.22
2023-05-17T05:08:32.499Z,1.71
2023-05-17T05:09:32.456Z,0
2023-05-17T05:10:32.523Z,0
2023-05-17T05:11:32.496Z,0.36
2023-05-17T05:12:32.465Z,2.08
2023-05-17T05:13:32.474Z,2.08
2023-05-17T05:14:32.498Z,2.94
2023-05-17T05:15:32.458Z,3.43
2023-05-17T05:16:32.487Z,3.43
2023-05-17T05:17:32.566Z,4.77
2023-05-17T05:18:32.783Z,4.28
2023-05-17T05:19:32.545Z,4.77
2023-05-17T05:20:32.503Z,5.14
2023-05-17T05:21:32.477Z,4.28
2023-05-17T05:22:32.460Z,3.79
2023-05-17T05:23:32.491Z,3.43
2023-05-17T05:24:32.465Z,2.94
2023-05-17T05:25:32.458Z,3.43
2023-05-17T05:26:32.485Z,4.28
2023-05-17T05:27:32.499Z,4.28
2023-05-17T05:28:32.512Z,3.79
2023-05-17T05:29:32.548Z,3.79
2023-05-17T05:30:32.583Z,3.43
2023-05-17T05:31:32.481Z,3.43
2023-05-17T05:32:32.600Z,4.28
2023-05-17T05:33:32.678Z,5.14
2023-05-17T05:34:32.491Z,7.7
2023-05-17T05:35:32.469Z,9.91
2023-05-17T05:36:32.502Z,9.05
2023-05-17T05:37:32.510Z,5.63
2023-05-17T05:38:32.444Z,2.94
2023-05-17T05:39:32.505Z,4.28
2023-05-17T05:40:32.702Z,8.19
2023-05-17T05:41:32.517Z,10.39
2023-05-17T05:42:32.475Z,9.91
2023-05-17T05:43:32.499Z,9.54
2023-05-17T05:44:32.461Z,7.34
2023-05-17T05:45:32.547Z,5.99
2023-05-17T05:46:32.470Z,5.63
2023-05-17T05:47:32.468Z,7.34
2023-05-17T05:48:32.606Z,8.56
2023-05-17T05:49:32.476Z,5.14
2023-05-17T05:50:32.441Z,2.57
2023-05-17T05:51:32.506Z,3.79
2023-05-17T05:52:32.486Z,7.7
2023-05-17T05:53:32.465Z,10.77
2023-05-17T05:54:32.453Z,13.33
2023-05-17T05:55:32.482Z,16.88
2023-05-17T05:56:32.450Z,19.94
2023-05-17T05:57:32.446Z,22.02
2023-05-17T05:58:32.498Z,27.65
2023-05-17T05:59:32.506Z,30.7
2023-05-17T06:00:32.510Z,34.25
2023-05-17T06:01:32.498Z,35.97
2023-05-17T06:02:32.452Z,35.97
2023-05-17T06:03:32.455Z,36.82
2023-05-17T06:04:43.821Z,36.82
2023-05-17T06:05:32.589Z,38.53
2023-05-17T06:06:32.665Z,39.39
2023-05-17T06:07:32.501Z,43.8
2023-05-17T06:08:32.454Z,44.65
2023-05-17T06:09:32.471Z,44.16
2023-05-17T06:10:32.523Z,45.02
2023-05-17T06:11:32.447Z,34.25
2023-05-17T06:12:32.555Z,39.39
2023-05-17T06:13:32.476Z,40.73
2023-05-17T06:14:32.520Z,41.59
2023-05-17T06:15:32.480Z,42.45
2023-05-17T06:16:32.479Z,48.07
2023-05-17T06:17:32.533Z,52.85
2023-05-17T06:18:32.516Z,60.19
2023-05-17T06:19:32.770Z,69.36
2023-05-17T06:20:32.617Z,78.9
2023-05-17T06:21:32.508Z,88.82
2023-05-17T06:22:32.501Z,114.02
2023-05-17T06:23:32.488Z,160.51
2023-05-17T06:24:33.302Z,232.44
2023-05-17T06:25:32.488Z,260.69
2023-05-17T06:26:32.483Z,144.36
2023-05-17T06:27:32.472Z,81.48
2023-05-17T06:28:32.453Z,283.69
2023-05-17T06:29:32.484Z,281.86
2023-05-17T06:30:32.913Z,158.67
2023-05-17T06:31:32.515Z,141.42
2023-05-17T06:32:32.497Z,142.27
2023-05-17T06:33:32.512Z,90.16
2023-05-17T06:34:32.451Z,91.02
2023-05-17T06:35:40.806Z,64.96
2023-05-17T06:36:32.942Z,133.59
2023-05-17T06:37:32.501Z,113.16
2023-05-17T06:38:32.458Z,118.78
2023-05-17T06:39:32.469Z,124.9
2023-05-17T06:40:32.670Z,187.29
2023-05-17T06:41:32.480Z,174.33
2023-05-17T06:42:32.449Z,136.65
2023-05-17T06:43:32.467Z,244.67
2023-05-17T06:44:32.460Z,127.96
2023-05-17T06:45:32.480Z,80.25
2023-05-17T06:46:33.445Z,112.67
2023-05-17T06:47:32.533Z,114.87
2023-05-17T06:48:32.630Z,121.36
2023-05-17T06:49:32.507Z,133.59
2023-05-17T06:50:32.791Z,148.27
2023-05-17T06:51:32.511Z,172.12
2023-05-17T06:52:32.475Z,183.5
2023-05-17T06:53:32.481Z,213.84
2023-05-17T06:54:32.496Z,252.87
2023-05-17T06:55:32.445Z,214.7
2023-05-17T06:56:32.502Z,120.99
2023-05-17T06:57:32.471Z,130.9
2023-05-17T06:58:32.480Z,129.19
2023-05-17T06:59:32.467Z,102.27
2023-05-17T07:00:32.929Z,99.7
2023-05-17T07:01:32.497Z,111.44
2023-05-17T07:02:34.437Z,114.02
2023-05-17T07:03:32.614Z,115.73
2023-05-17T07:04:32.639Z,100.19
2023-05-17T07:05:32.698Z,95.79
2023-05-17T07:06:32.500Z,92.36
2023-05-17T07:07:32.497Z,77.56
2023-05-17T07:08:32.546Z,72.79
2023-05-17T07:09:32.501Z,84.53
2023-05-17T07:10:32.451Z,165.27
2023-05-17T07:11:32.468Z,136.65
2023-05-17T07:12:32.447Z,65.94
2023-05-17T07:13:32.545Z,53.7
2023-05-17T07:14:32.509Z,47.71
2023-05-17T07:15:32.494Z,48.93
2023-05-17T07:16:32.553Z,66.31
2023-05-17T07:17:32.486Z,79.27
2023-05-17T07:18:32.704Z,85.39
2023-05-17T07:19:32.704Z,67.16
2023-05-17T07:20:32.468Z,54.19
2023-05-17T07:21:32.461Z,58.11
2023-05-17T07:22:32.535Z,56.27
2023-05-17T07:23:32.513Z,48.07
2023-05-17T07:24:32.496Z,44.65
2023-05-17T07:25:32.479Z,48.07
2023-05-17T07:26:32.502Z,64.1
2023-05-17T07:27:32.516Z,75.85
2023-05-17T07:28:32.462Z,65.45
2023-05-17T07:29:32.463Z,48.07
2023-05-17T07:30:32.407Z,38.53
2023-05-17T07:31:32.506Z,45.02
2023-05-17T07:32:32.553Z,57.62
2023-05-17T07:33:32.499Z,64.59
2023-05-17T07:34:32.539Z,71.07
2023-05-17T07:35:32.521Z,81.97
2023-05-17T07:36:32.511Z,78.9
2023-05-17T07:37:32.595Z,67.65
2023-05-17T07:38:32.542Z,51.99
2023-05-17T07:39:32.516Z,50.65
2023-05-17T07:40:32.459Z,34.25
2023-05-17T07:41:32.443Z,27.28
2023-05-17T07:42:32.489Z,18.11
2023-05-17T07:43:32.463Z,20.31
2023-05-17T07:44:32.453Z,33.76
2023-05-17T07:45:32.495Z,43.31
2023-05-17T07:46:32.592Z,48.93
2023-05-17T07:47:32.635Z,54.19
2023-05-17T07:48:32.624Z,51.99
2023-05-17T07:49:32.554Z,53.7
2023-05-17T07:50:32.535Z,52.85
2023-05-17T07:51:32.450Z,61.17
2023-05-17T07:52:32.459Z,71.07
2023-05-17T07:53:32.434Z,77.56
2023-05-17T07:54:32.455Z,84.53
2023-05-17T07:55:32.528Z,91.02
2023-05-17T07:56:32.443Z,96.27
2023-05-17T07:57:32.738Z,96.27
2023-05-17T07:58:32.476Z,70.22
2023-05-17T07:59:32.505Z,60.68
2023-05-17T08:00:32.462Z,56.27
2023-05-17T08:01:32.448Z,51.14
2023-05-17T08:02:32.520Z,51.5
2023-05-17T08:03:32.476Z,56.76
2023-05-17T08:04:32.553Z,51.99
2023-05-17T08:05:32.676Z,48.07
2023-05-17T08:06:32.496Z,43.31
2023-05-17T08:07:32.454Z,39.88
2023-05-17T08:08:32.453Z,35.48
2023-05-17T08:09:32.471Z,28.63
2023-05-17T08:10:32.429Z,19.45
2023-05-17T08:11:34.403Z,18.6
2023-05-17T08:12:32.475Z,19.45
2023-05-17T08:13:32.436Z,19.94
2023-05-17T08:14:32.442Z,19.94
2023-05-17T08:15:32.448Z,18.6
2023-05-17T08:16:32.477Z,19.08
2023-05-17T08:17:32.588Z,19.08
2023-05-17T08:18:32.580Z,16.88
2023-05-17T08:19:32.847Z,19.94
2023-05-17T08:20:32.489Z,25.94
2023-05-17T08:21:32.636Z,25.94
2023-05-17T08:22:32.447Z,29.85
2023-05-17T08:23:32.484Z,37.19
2023-05-17T08:24:32.455Z,43.8
2023-05-17T08:25:32.548Z,45.87
2023-05-17T08:26:32.449Z,51.5
2023-05-17T08:27:32.580Z,51.14
2023-05-17T08:28:32.487Z,45.51
2023-05-17T08:29:32.451Z,49.42
2023-05-17T08:30:32.542Z,53.7
2023-05-17T08:31:32.449Z,54.19
2023-05-17T08:32:32.467Z,55.41
2023-05-17T08:33:32.516Z,51.5
2023-05-17T08:34:32.432Z,50.28
2023-05-17T08:35:32.631Z,41.96
2023-05-17T08:36:32.465Z,48.07
2023-05-17T08:37:32.494Z,56.27
2023-05-17T08:38:32.456Z,61.17
2023-05-17T08:39:32.472Z,69.36
2023-05-17T08:40:32.743Z,74.99
2023-05-17T08:41:32.437Z,84.04
2023-05-17T08:42:32.419Z,66.8
2023-05-17T08:43:32.448Z,54.56
2023-05-17T08:44:32.433Z,65.45
2023-05-17T08:45:32.476Z,67.16
2023-05-17T08:46:32.422Z,58.11
2023-05-17T08:47:32.509Z,59.82
2023-05-17T08:48:32.458Z,65.45
2023-05-17T08:49:32.451Z,66.8
2023-05-17T08:50:32.413Z,73.65
2023-05-17T08:51:32.450Z,85.88
2023-05-17T08:52:32.480Z,86.24
2023-05-17T08:53:32.432Z,67.16
2023-05-17T08:54:32.436Z,63.24
2023-05-17T08:55:32.477Z,68.51
2023-05-17T08:56:32.442Z,73.65
2023-05-17T08:57:32.473Z,74.14
2023-05-17T08:58:35.987Z,72.42
2023-05-17T08:59:32.436Z,75.48
2023-05-17T09:00:32.519Z,73.28
2023-05-17T09:01:33.285Z,67.16
2023-05-17T09:02:32.470Z,61.17
2023-05-17T09:03:32.492Z,62.02
2023-05-17T09:04:32.426Z,60.68
2023-05-17T09:05:32.493Z,52.48
2023-05-17T09:06:32.488Z,50.28
2023-05-17T09:07:32.418Z,49.79
2023-05-17T09:08:32.435Z,51.14
2023-05-17T09:09:32.468Z,53.34
2023-05-17T09:10:32.463Z,55.41
2023-05-17T09:11:32.449Z,64.59
2023-05-17T09:12:32.533Z,76.34
2023-05-17T09:13:32.467Z,84.53
2023-05-17T09:14:32.454Z,88.82
2023-05-17T09:15:32.413Z,74.5
2023-05-17T09:16:32.487Z,60.19
2023-05-17T09:17:32.515Z,52.48
2023-05-17T09:18:32.554Z,45.87
2023-05-17T09:19:32.501Z,39.02
2023-05-17T09:20:32.420Z,37.68
2023-05-17T09:21:32.459Z,37.19
2023-05-17T09:22:32.470Z,38.53
2023-05-17T09:23:32.454Z,42.45
2023-05-17T09:24:32.454Z,49.79
2023-05-17T09:25:32.507Z,58.97
2023-05-17T09:26:32.437Z,77.56
2023-05-17T09:27:32.523Z,81.1
2023-05-17T09:28:32.432Z,90.16
2023-05-17T09:29:32.423Z,81.97
2023-05-17T09:30:32.813Z,83.68
2023-05-17T09:31:32.529Z,87.1
2023-05-17T09:32:32.485Z,83.68
2023-05-17T09:33:32.481Z,78.05
2023-05-17T09:34:32.446Z,81.1
2023-05-17T09:35:32.480Z,71.56
2023-05-17T09:36:32.477Z,51.5
2023-05-17T09:37:32.461Z,52.85
2023-05-17T09:38:32.468Z,55.05
2023-05-17T09:39:32.449Z,53.34
2023-05-17T09:40:32.462Z,58.97
2023-05-17T09:41:32.442Z,57.25
2023-05-17T09:42:32.437Z,53.34
2023-05-17T09:43:32.504Z,44.16
2023-05-17T09:44:32.412Z,49.42
2023-05-17T09:45:32.468Z,48.93
2023-05-17T09:46:32.452Z,51.99
2023-05-17T09:47:32.633Z,59.33
2023-05-17T09:48:32.583Z,62.39
2023-05-17T09:49:32.461Z,61.53
2023-05-17T09:50:32.420Z,65.94
2023-05-17T09:51:32.450Z,71.56
2023-05-17T09:52:32.585Z,67.16
2023-05-17T09:53:32.516Z,62.39
2023-05-17T09:54:32.401Z,45.87
2023-05-17T09:55:32.482Z,34.25
2023-05-17T09:56:32.510Z,33.39
2023-05-17T09:57:32.491Z,41.1
2023-05-17T09:58:32.474Z,49.42
2023-05-17T09:59:32.442Z,50.65
2023-05-17T10:00:32.438Z,50.28
2023-05-17T10:01:32.466Z,49.42
2023-05-17T10:02:32.461Z,45.87
2023-05-17T10:03:32.552Z,42.94
2023-05-17T10:04:32.482Z,45.87
2023-05-17T10:05:32.751Z,49.79
2023-05-17T10:06:44.170Z,53.7
2023-05-17T10:07:32.491Z,50.65
2023-05-17T10:08:32.490Z,46.73
2023-05-17T10:09:32.446Z,46.36
2023-05-17T10:10:32.463Z,45.51
2023-05-17T10:11:32.456Z,48.56
2023-05-17T10:12:32.429Z,49.79
2023-05-17T10:13:32.427Z,49.79
2023-05-17T10:14:32.601Z,53.7
2023-05-17T10:15:32.470Z,52.85
2023-05-17T10:16:32.430Z,48.07
2023-05-17T10:17:32.463Z,51.5
2023-05-17T10:18:32.522Z,51.99
2023-05-17T10:19:32.670Z,51.5
2023-05-17T10:20:32.477Z,73.65
2023-05-17T10:21:32.437Z,96.65
2023-05-17T10:22:32.470Z,85.88
2023-05-17T10:23:32.492Z,79.76
2023-05-17T10:24:32.430Z,74.99
2023-05-17T10:25:32.436Z,67.65
2023-05-17T10:26:32.446Z,60.68
2023-05-17T10:27:32.444Z,58.11
2023-05-17T10:28:32.450Z,66.8
2023-05-17T10:29:32.421Z,65.45
2023-05-17T10:30:32.405Z,67.65
2023-05-17T10:31:32.476Z,64.1
2023-05-17T10:32:32.564Z,56.27
2023-05-17T10:33:32.594Z,62.88
2023-05-17T10:34:32.497Z,74.99
2023-05-17T10:35:32.442Z,97.99
2023-05-17T10:36:32.459Z,137.02
2023-05-17T10:37:32.434Z,147.41
2023-05-17T10:38:41.814Z,143.13
2023-05-17T10:39:32.441Z,172.61
2023-05-17T10:40:32.475Z,149.12
2023-05-17T10:41:32.434Z,150.47
2023-05-17T10:42:32.470Z,163.07
2023-05-17T10:43:32.427Z,195.12
2023-05-17T10:44:32.486Z,183.02
2023-05-17T10:45:32.459Z,148.27
2023-05-17T10:46:32.484Z,142.27
2023-05-17T10:47:32.451Z,97.99
2023-05-17T10:48:32.437Z,94.07
2023-05-17T10:49:32.502Z,80.25
2023-05-17T10:50:32.459Z,65.94
2023-05-17T10:51:32.444Z,66.31
2023-05-17T10:52:32.453Z,65.45
2023-05-17T10:53:32.442Z,65.94
2023-05-17T10:54:32.448Z,70.71
2023-05-17T10:55:32.428Z,66.8
2023-05-17T10:56:32.414Z,64.96
2023-05-17T10:57:39.059Z,66.31
2023-05-17T10:58:32.456Z,73.65
2023-05-17T10:59:32.416Z,77.56
2023-05-17T11:00:32.419Z,70.22
2023-05-17T11:01:33.665Z,68.87
2023-05-17T11:02:38.089Z,60.19
2023-05-17T11:03:42.018Z,55.9
2023-05-17T11:04:46.030Z,59.82
2023-05-17T11:05:50.226Z,58.11
2023-05-17T11:06:54.130Z,61.53
2023-05-17T11:07:58.019Z,58.97
2023-05-17T11:09:02.061Z,62.39
2023-05-17T11:10:06.123Z,61.17
2023-05-17T11:11:10.007Z,57.62
2023-05-17T11:12:14.344Z,50.28
2023-05-17T11:13:17.985Z,42.94
2023-05-17T11:14:22.003Z,39.88
2023-05-17T11:15:26.004Z,40.24
2023-05-17T11:16:30.067Z,44.16
2023-05-17T11:17:32.470Z,48.93
2023-05-17T11:18:35.284Z,49.42
2023-05-17T11:19:32.635Z,48.07
2023-05-17T11:20:32.796Z,46.36
2023-05-17T11:21:32.403Z,45.51
2023-05-17T11:22:32.422Z,45.51
2023-05-17T11:23:32.426Z,37.19
2023-05-17T11:24:32.477Z,29.48
2023-05-17T11:25:32.448Z,27.28
2023-05-17T11:26:32.482Z,26.79
2023-05-17T11:27:32.452Z,25.56
2023-05-17T11:28:32.441Z,26.42
2023-05-17T11:29:32.449Z,26.42
2023-05-17T11:30:32.687Z,28.63
2023-05-17T11:31:32.481Z,28.99
2023-05-17T11:32:32.567Z,28.99
2023-05-17T11:33:34.115Z,31.56
2023-05-17T11:34:32.511Z,31.56
2023-05-17T11:35:32.445Z,31.19
2023-05-17T11:36:32.413Z,28.99
2023-05-17T11:37:32.423Z,25.94
2023-05-17T11:38:32.445Z,28.99
2023-05-17T11:39:32.430Z,27.65
2023-05-17T11:40:32.527Z,26.79
2023-05-17T11:41:32.500Z,32.05
2023-05-17T11:42:32.431Z,42.94
2023-05-17T11:43:32.452Z,45.02
2023-05-17T11:44:32.469Z,48.56
2023-05-17T11:45:32.435Z,47.22
2023-05-17T11:46:32.462Z,50.28
2023-05-17T11:47:32.498Z,51.99
2023-05-17T11:48:32.799Z,50.65
2023-05-17T11:49:35.933Z,48.56
2023-05-17T11:50:32.424Z,58.48
2023-05-17T11:51:32.446Z,59.82
2023-05-17T11:52:32.432Z,63.24
2023-05-17T11:53:32.433Z,57.62
2023-05-17T11:54:32.416Z,41.96
2023-05-17T11:55:32.474Z,38.17
2023-05-17T11:56:42.563Z,47.71
2023-05-17T11:57:32.466Z,51.5
2023-05-17T11:58:32.427Z,51.5
2023-05-17T11:59:32.416Z,59.33
2023-05-17T12:00:32.741Z,60.19
2023-05-17T12:01:32.420Z,50.65
2023-05-17T12:02:32.455Z,40.73
2023-05-17T12:03:32.460Z,40.73
2023-05-17T12:04:33.335Z,39.88
2023-05-17T12:05:32.470Z,39.02
2023-05-17T12:06:32.454Z,37.19
2023-05-17T12:07:32.422Z,40.24
2023-05-17T12:08:32.410Z,41.59
2023-05-17T12:09:32.464Z,41.59
2023-05-17T12:10:34.653Z,38.17
2023-05-17T12:11:32.488Z,35.11
2023-05-17T12:12:32.471Z,32.05
2023-05-17T12:13:32.458Z,30.34
2023-05-17T12:14:32.411Z,28.63
2023-05-17T12:15:32.475Z,27.65
2023-05-17T12:16:32.424Z,30.34
2023-05-17T12:17:32.545Z,28.63
2023-05-17T12:18:32.474Z,30.7
2023-05-17T12:19:32.719Z,28.99
2023-05-17T12:20:32.672Z,33.39
2023-05-17T12:21:32.430Z,35.11
2023-05-17T12:22:32.406Z,32.42
2023-05-17T12:23:32.482Z,33.39
2023-05-17T12:24:32.437Z,33.39
2023-05-17T12:25:32.462Z,29.85
2023-05-17T12:26:32.435Z,30.7
2023-05-17T12:27:32.432Z,30.7
2023-05-17T12:28:32.420Z,32.9
2023-05-17T12:29:32.400Z,31.56
2023-05-17T12:30:32.368Z,32.9
2023-05-17T12:31:32.428Z,30.34
2023-05-17T12:32:32.479Z,27.65
2023-05-17T12:33:32.525Z,29.48
2023-05-17T12:34:32.467Z,30.7
2023-05-17T12:35:32.412Z,31.19
2023-05-17T12:36:32.425Z,31.19
2023-05-17T12:37:32.408Z,33.39
2023-05-17T12:38:32.464Z,33.39
2023-05-17T12:39:32.454Z,31.56
2023-05-17T12:40:32.490Z,29.85
2023-05-17T12:41:32.391Z,30.7
2023-05-17T12:42:32.464Z,32.42
2023-05-17T12:43:32.407Z,39.39
2023-05-17T12:44:32.455Z,41.1
2023-05-17T12:45:32.491Z,42.94
2023-05-17T12:46:32.426Z,45.02
2023-05-17T12:47:32.432Z,46.73
2023-05-17T12:48:32.516Z,48.07
2023-05-17T12:49:32.421Z,48.07
2023-05-17T12:50:32.436Z,48.07
2023-05-17T12:51:32.403Z,48.56
2023-05-17T12:52:32.395Z,49.42
2023-05-17T12:53:32.384Z,49.42
2023-05-17T12:54:32.410Z,48.56
2023-05-17T12:55:32.424Z,52.85
2023-05-17T12:56:32.420Z,56.27
2023-05-17T12:57:32.738Z,58.11
2023-05-17T12:58:32.415Z,57.62
2023-05-17T12:59:32.445Z,59.82
2023-05-17T13:00:32.504Z,61.17
2023-05-17T13:01:32.416Z,63.24
2023-05-17T13:02:32.527Z,64.1
2023-05-17T13:03:32.474Z,67.16
2023-05-17T13:04:33.094Z,68.02
2023-05-17T13:05:32.407Z,68.02
2023-05-17T13:06:32.446Z,68.51
2023-05-17T13:07:32.427Z,68.87
2023-05-17T13:08:32.451Z,68.87
2023-05-17T13:09:32.445Z,64.1
2023-05-17T13:10:32.554Z,59.33
2023-05-17T13:11:32.411Z,57.62
2023-05-17T13:12:32.418Z,51.99
2023-05-17T13:13:32.398Z,48.93
2023-05-17T13:14:32.432Z,40.73
2023-05-17T13:15:32.435Z,40.24
2023-05-17T13:16:32.468Z,38.17
2023-05-17T13:17:32.459Z,33.39
2023-05-17T13:18:32.508Z,29.48